Time,TemperatureF,DewpointF,PressureIn,WindDirection,WindDirectionDegrees,WindSpeedMPH,WindSpeedGustMPH,Humidity,HourlyPrecipIn,Conditions,Clouds,dailyrainin,SolarRadiationWatts/m^2,SoftwareType,DateUTC
2013-03-03 00:03:00,42.6,13.4,30.50,ESE,119,3.0,0.0,30,0.00,,,0.00,0,WeatherHawk,2013-03-03 06:03:00,
2013-03-03 00:08:00,42.0,13.6,30.50,ESE,117,2.0,0.0,31,0.00,,,0.00,0,WeatherHawk,2013-03-03 06:08:00,
2013-03-03 00:13:00,42.3,13.1,30.51,ESE,119,4.0,0.0,30,0.00,,,0.00,1,WeatherHawk,2013-03-03 06:13:00,
2013-03-03 00:19:00,41.5,13.1,30.49,ESE,116,2.0,0.0,31,0.00,,,0.00,0,WeatherHawk,2013-03-03 06:19:00,
2013-03-03 00:24:00,41.8,14.2,30.49,East,97,0.0,0.0,32,0.00,,,0.00,0,WeatherHawk,2013-03-03 06:24:00,
2013-03-03 00:29:00,42.1,13.7,30.50,SE,136,2.0,0.0,31,0.00,,,0.00,0,WeatherHawk,2013-03-03 06:29:00,
2013-03-03 00:34:00,41.6,10.9,30.50,SE,128,1.0,0.0,28,0.00,,,0.00,0,WeatherHawk,2013-03-03 06:34:00,
2013-03-03 00:39:00,42.9,11.2,30.49,SE,137,5.0,0.0,27,0.00,,,0.00,0,WeatherHawk,2013-03-03 06:39:00,
2013-03-03 00:45:00,42.0,10.4,30.49,ESE,117,4.0,0.0,27,0.00,,,0.00,1,WeatherHawk,2013-03-03 06:45:00,
2013-03-03 00:50:00,41.4,9.1,30.49,ESE,111,3.0,0.0,26,0.00,,,0.00,0,WeatherHawk,2013-03-03 06:50:00,
2013-03-03 00:55:00,42.0,11.3,30.48,ESE,120,2.0,0.0,28,0.00,,,0.00,1,WeatherHawk,2013-03-03 06:55:00,
2013-03-03 01:00:00,42.6,11.8,30.49,SE,126,4.0,-999.0,28,0.00,,,0.00,0,WeatherHawk,2013-03-03 07:00:00,
2013-03-03 01:05:00,42.4,10.8,30.48,ESE,107,2.0,0.0,27,0.00,,,0.00,0,WeatherHawk,2013-03-03 07:05:00,
2013-03-03 01:10:00,42.6,11.0,30.49,SE,125,4.0,0.0,27,0.00,,,0.00,0,WeatherHawk,2013-03-03 07:10:00,
2013-03-03 01:15:00,42.4,10.0,30.49,SSE,149,3.0,0.0,26,0.00,,,0.00,0,WeatherHawk,2013-03-03 07:15:00,
2013-03-03 01:20:00,42.5,9.2,30.49,SE,141,2.0,0.0,25,0.00,,,0.00,0,WeatherHawk,2013-03-03 07:20:00,
2013-03-03 01:25:00,43.2,7.9,30.48,SE,130,4.0,0.0,23,0.00,,,0.00,1,WeatherHawk,2013-03-03 07:25:00,
2013-03-03 01:30:00,42.7,8.5,30.48,ESE,121,5.0,0.0,24,0.00,,,0.00,1,WeatherHawk,2013-03-03 07:30:00,
2013-03-03 01:35:00,42.6,8.4,30.48,ESE,108,2.0,0.0,24,0.00,,,0.00,1,WeatherHawk,2013-03-03 07:35:00,
2013-03-03 01:40:00,42.0,9.6,30.48,ESE,109,0.0,0.0,26,0.00,,,0.00,0,WeatherHawk,2013-03-03 07:40:00,
2013-03-03 01:45:00,42.3,9.0,30.49,SE,142,3.0,0.0,25,0.00,,,0.00,0,WeatherHawk,2013-03-03 07:45:00,
2013-03-03 01:50:00,42.3,9.0,30.49,SE,138,4.0,0.0,25,0.00,,,0.00,1,WeatherHawk,2013-03-03 07:50:00,
2013-03-03 01:55:00,42.4,8.2,30.49,SE,127,1.0,-999.0,24,0.00,,,0.00,1,WeatherHawk,2013-03-03 07:55:00,
2013-03-03 02:00:00,42.2,8.0,30.48,ESE,115,0.0,0.0,24,0.00,,,0.00,0,WeatherHawk,2013-03-03 08:00:00,
2013-03-03 02:05:00,40.6,10.1,30.48,SSW,203,0.0,0.0,28,0.00,,,0.00,0,WeatherHawk,2013-03-03 08:05:00,
2013-03-03 02:10:00,42.4,10.8,30.49,NW,315,2.0,0.0,27,0.00,,,0.00,0,WeatherHawk,2013-03-03 08:10:00,
2013-03-03 02:15:00,42.1,12.2,30.50,NNE,13,2.0,0.0,29,0.00,,,0.00,0,WeatherHawk,2013-03-03 08:15:00,
2013-03-03 02:20:00,39.8,10.9,30.50,NNE,13,0.0,-999.0,30,0.00,,,0.00,0,WeatherHawk,2013-03-03 08:20:00,
2013-03-03 02:25:00,39.3,11.2,30.50,NNE,13,0.0,0.0,31,0.00,,,0.00,0,WeatherHawk,2013-03-03 08:25:00,
2013-03-03 02:30:00,40.0,12.5,30.49,SSE,163,0.0,0.0,32,0.00,,,0.00,1,WeatherHawk,2013-03-03 08:30:00,
2013-03-03 02:35:00,41.2,12.9,30.49,SSE,157,0.0,0.0,31,0.00,,,0.00,0,WeatherHawk,2013-03-03 08:35:00,
2013-03-03 02:40:00,38.6,12.0,30.49,SSE,157,0.0,-999.0,33,0.00,,,0.00,0,WeatherHawk,2013-03-03 08:40:00,
2013-03-03 02:45:00,41.5,12.4,30.48,SSE,156,3.0,0.0,30,0.00,,,0.00,0,WeatherHawk,2013-03-03 08:45:00,
2013-03-03 02:50:00,41.5,11.7,30.48,SE,129,2.0,0.0,29,0.00,,,0.00,0,WeatherHawk,2013-03-03 08:50:00,
2013-03-03 02:55:00,41.3,11.5,30.49,SSE,150,2.0,0.0,29,0.00,,,0.00,0,WeatherHawk,2013-03-03 08:55:00,
2013-03-03 03:00:00,41.3,11.4,30.47,SSE,150,3.0,0.0,29,0.00,,,0.00,0,WeatherHawk,2013-03-03 09:00:00,
2013-03-03 03:05:00,40.8,9.4,30.48,South,169,2.0,0.0,27,0.00,,,0.00,0,WeatherHawk,2013-03-03 09:05:00,
2013-03-03 03:10:00,41.3,9.9,30.47,SE,132,3.0,0.0,27,0.00,,,0.00,0,WeatherHawk,2013-03-03 09:10:00,
2013-03-03 03:15:00,41.6,11.0,30.48,SE,137,5.0,-999.0,28,0.00,,,0.00,0,WeatherHawk,2013-03-03 09:15:00,
2013-03-03 03:20:00,41.3,9.1,30.46,SSE,168,2.0,0.0,26,0.00,,,0.00,1,WeatherHawk,2013-03-03 09:20:00,
2013-03-03 03:25:00,41.8,10.3,30.46,SE,146,2.0,-999.0,27,0.00,,,0.00,0,WeatherHawk,2013-03-03 09:25:00,
2013-03-03 03:30:00,41.6,8.4,30.47,SSE,148,3.0,0.0,25,0.00,,,0.00,1,WeatherHawk,2013-03-03 09:30:00,
2013-03-03 03:35:00,41.3,9.1,30.46,SE,144,4.0,-999.0,26,0.00,,,0.00,1,WeatherHawk,2013-03-03 09:35:00,
2013-03-03 03:40:00,41.2,8.9,30.46,SE,130,4.0,0.0,26,0.00,,,0.00,2,WeatherHawk,2013-03-03 09:40:00,
2013-03-03 03:45:00,41.0,8.8,30.46,SE,146,3.0,-999.0,26,0.00,,,0.00,0,WeatherHawk,2013-03-03 09:45:00,
2013-03-03 03:50:00,41.2,9.7,30.46,SE,136,2.0,0.0,27,0.00,,,0.00,0,WeatherHawk,2013-03-03 09:50:00,
2013-03-03 03:55:00,41.1,8.8,30.45,SSE,150,3.0,0.0,26,0.00,,,0.00,1,WeatherHawk,2013-03-03 09:55:00,
2013-03-03 04:00:00,41.0,10.4,30.44,East,95,4.0,0.0,28,0.00,,,0.00,0,WeatherHawk,2013-03-03 10:00:00,
2013-03-03 04:05:00,41.1,9.7,30.46,ESE,110,2.0,0.0,27,0.00,,,0.00,1,WeatherHawk,2013-03-03 10:05:00,
2013-03-03 04:10:00,41.1,9.7,30.45,ESE,122,2.0,0.0,27,0.00,,,0.00,1,WeatherHawk,2013-03-03 10:10:00,
2013-03-03 04:15:00,41.1,8.8,30.45,ESE,115,5.0,-999.0,26,0.00,,,0.00,1,WeatherHawk,2013-03-03 10:15:00,
2013-03-03 04:20:00,41.1,8.9,30.45,SSE,157,4.0,0.0,26,0.00,,,0.00,1,WeatherHawk,2013-03-03 10:20:00,
2013-03-03 04:25:00,41.1,9.7,30.45,SSE,152,4.0,0.0,27,0.00,,,0.00,0,WeatherHawk,2013-03-03 10:25:00,
2013-03-03 04:30:00,40.8,9.4,30.44,SSE,167,2.0,0.0,27,0.00,,,0.00,1,WeatherHawk,2013-03-03 10:30:00,
2013-03-03 04:35:00,40.9,9.5,30.45,SSE,168,4.0,0.0,27,0.00,,,0.00,0,WeatherHawk,2013-03-03 10:35:00,
2013-03-03 04:40:00,41.0,9.6,30.45,SSE,149,4.0,-999.0,27,0.00,,,0.00,0,WeatherHawk,2013-03-03 10:40:00,
2013-03-03 04:45:00,41.5,9.2,30.46,SE,129,2.0,0.0,26,0.00,,,0.00,1,WeatherHawk,2013-03-03 10:45:00,
2013-03-03 04:50:00,41.0,9.6,30.46,SE,136,3.0,-999.0,27,0.00,,,0.00,0,WeatherHawk,2013-03-03 10:50:00,
2013-03-03 04:55:00,39.9,9.5,30.46,ESE,115,0.0,0.0,28,0.00,,,0.00,1,WeatherHawk,2013-03-03 10:55:00,
2013-03-03 05:00:00,40.7,10.1,30.46,SE,135,0.0,0.0,28,0.00,,,0.00,0,WeatherHawk,2013-03-03 11:00:00,
2013-03-03 05:05:00,40.8,10.3,30.46,SE,130,2.0,0.0,28,0.00,,,0.00,0,WeatherHawk,2013-03-03 11:05:00,
2013-03-03 05:10:00,40.3,9.9,30.46,SE,136,0.0,0.0,28,0.00,,,0.00,0,WeatherHawk,2013-03-03 11:10:00,
2013-03-03 05:15:00,40.1,10.4,30.45,SE,135,0.0,0.0,29,0.00,,,0.00,0,WeatherHawk,2013-03-03 11:15:00,
2013-03-03 05:20:00,40.7,10.1,30.46,SE,133,1.0,-999.0,28,0.00,,,0.00,1,WeatherHawk,2013-03-03 11:20:00,
2013-03-03 05:25:00,40.8,10.2,30.46,SSE,147,2.0,-999.0,28,0.00,,,0.00,1,WeatherHawk,2013-03-03 11:25:00,
2013-03-03 05:30:00,40.5,10.0,30.46,SE,126,4.0,0.0,28,0.00,,,0.00,1,WeatherHawk,2013-03-03 11:30:00,
2013-03-03 05:35:00,40.1,9.6,30.46,SE,125,1.0,-999.0,28,0.00,,,0.00,0,WeatherHawk,2013-03-03 11:35:00,
2013-03-03 05:40:00,40.5,10.8,30.46,SE,129,2.0,0.0,29,0.00,,,0.00,0,WeatherHawk,2013-03-03 11:40:00,
2013-03-03 05:45:00,40.1,10.4,30.47,ESE,116,3.0,0.0,29,0.00,,,0.00,1,WeatherHawk,2013-03-03 11:45:00,
2013-03-03 05:50:00,39.3,8.9,30.46,ESE,116,3.0,0.0,28,0.00,,,0.00,1,WeatherHawk,2013-03-03 11:50:00,
2013-03-03 05:55:00,39.7,10.9,30.45,ESE,121,4.0,0.0,30,0.00,,,0.00,1,WeatherHawk,2013-03-03 11:55:00,
2013-03-03 06:00:00,39.3,11.2,30.45,ESE,108,2.0,-999.0,31,0.00,,,0.00,0,WeatherHawk,2013-03-03 12:00:00,
2013-03-03 06:05:00,40.0,10.4,30.46,SE,139,2.0,0.0,29,0.00,,,0.00,1,WeatherHawk,2013-03-03 12:05:00,
2013-03-03 06:10:00,39.1,11.0,30.46,ESE,118,1.0,-999.0,31,0.00,,,0.00,2,WeatherHawk,2013-03-03 12:10:00,
2013-03-03 06:15:00,39.3,11.2,30.46,SE,127,1.0,0.0,31,0.00,,,0.00,0,WeatherHawk,2013-03-03 12:15:00,
2013-03-03 06:20:00,39.8,10.9,30.46,SE,134,2.0,0.0,30,0.00,,,0.00,1,WeatherHawk,2013-03-03 12:20:00,
2013-03-03 06:25:00,40.3,9.0,30.46,East,93,5.0,0.0,27,0.00,,,0.00,0,WeatherHawk,2013-03-03 12:25:00,
2013-03-03 06:30:00,40.5,8.4,30.46,East,94,4.0,0.0,26,0.00,,,0.00,1,WeatherHawk,2013-03-03 12:30:00,
2013-03-03 06:35:00,40.9,12.6,30.46,ESE,115,3.0,-999.0,31,0.00,,,0.00,2,WeatherHawk,2013-03-03 12:35:00,
2013-03-03 06:40:00,41.0,10.5,30.46,SE,131,3.0,0.0,28,0.00,,,0.00,1,WeatherHawk,2013-03-03 12:40:00,
2013-03-03 06:45:00,41.8,9.4,30.46,SE,139,3.0,0.0,26,0.00,,,0.00,2,WeatherHawk,2013-03-03 12:45:00,
2013-03-03 06:50:00,41.3,7.3,30.45,SE,125,2.0,0.0,24,0.00,,,0.00,3,WeatherHawk,2013-03-03 12:50:00,
2013-03-03 06:55:00,42.3,7.2,30.45,SE,128,6.0,0.0,23,0.00,,,0.00,6,WeatherHawk,2013-03-03 12:55:00,
2013-03-03 07:00:00,42.5,7.3,30.44,SSE,153,6.0,0.0,23,0.00,,,0.00,11,WeatherHawk,2013-03-03 13:00:00,
2013-03-03 07:05:00,42.6,4.4,30.44,SE,125,4.0,0.0,20,0.00,,,0.00,16,WeatherHawk,2013-03-03 13:05:00,
2013-03-03 07:10:00,43.1,5.9,30.44,SE,136,7.0,-999.0,21,0.00,,,0.00,32,WeatherHawk,2013-03-03 13:10:00,
2013-03-03 07:15:00,43.0,2.5,30.43,SE,131,8.0,0.0,18,0.00,,,0.00,45,WeatherHawk,2013-03-03 13:15:00,
2013-03-03 07:20:00,43.6,2.9,30.42,SSE,167,6.0,0.0,18,0.00,,,0.00,58,WeatherHawk,2013-03-03 13:20:00,
2013-03-03 07:25:00,43.7,3.0,30.42,SE,142,7.0,0.0,18,0.00,,,0.00,70,WeatherHawk,2013-03-03 13:25:00,
2013-03-03 07:30:00,44.2,0.9,30.43,SE,144,7.0,0.0,16,0.00,,,0.00,81,WeatherHawk,2013-03-03 13:30:00,
2013-03-03 07:35:00,44.3,1.0,30.42,SE,140,8.0,0.0,16,0.00,,,0.00,94,WeatherHawk,2013-03-03 13:35:00,
2013-03-03 07:40:00,44.9,-2.9,30.43,SSE,148,7.0,0.0,13,0.00,,,0.00,84,WeatherHawk,2013-03-03 13:40:00,
2013-03-03 07:45:00,45.3,-4.3,30.43,South,173,11.0,0.0,12,0.00,,,0.00,118,WeatherHawk,2013-03-03 13:45:00,
2013-03-03 07:50:00,45.9,-0.6,30.42,South,181,6.0,0.0,14,0.00,,,0.00,133,WeatherHawk,2013-03-03 13:50:00,
2013-03-03 07:55:00,47.2,-1.1,30.41,East,80,8.0,-999.0,13,0.00,,,0.00,145,WeatherHawk,2013-03-03 13:55:00,
2013-03-03 08:00:00,46.5,-3.3,30.42,SSE,154,6.0,0.0,12,0.00,,,0.00,163,WeatherHawk,2013-03-03 14:00:00,
2013-03-03 08:05:00,47.4,-1.0,30.41,SSE,163,9.0,0.0,13,0.00,,,0.00,176,WeatherHawk,2013-03-03 14:05:00,
2013-03-03 08:10:00,47.3,-6.5,30.40,SE,135,9.0,0.0,10,0.00,,,0.00,191,WeatherHawk,2013-03-03 14:10:00,
2013-03-03 08:15:00,48.3,-1.9,30.41,South,180,8.0,0.0,12,0.00,,,0.00,207,WeatherHawk,2013-03-03 14:15:00,
2013-03-03 08:20:00,48.7,-7.6,30.41,SSE,168,9.0,0.0,9,0.00,,,0.00,220,WeatherHawk,2013-03-03 14:20:00,
2013-03-03 08:25:00,48.7,-10.0,30.41,SSE,158,8.0,0.0,8,0.00,,,0.00,236,WeatherHawk,2013-03-03 14:25:00,
2013-03-03 08:30:00,49.3,-7.1,30.40,South,174,8.0,-999.0,9,0.00,,,0.00,252,WeatherHawk,2013-03-03 14:30:00,
2013-03-03 08:35:00,49.4,-2.8,30.40,SE,138,8.0,0.0,11,0.00,,,0.00,268,WeatherHawk,2013-03-03 14:35:00,
2013-03-03 08:40:00,49.8,-9.1,30.40,SE,140,11.0,0.0,8,0.00,,,0.00,284,WeatherHawk,2013-03-03 14:40:00,
2013-03-03 08:45:00,49.8,-9.1,30.40,SSE,149,5.0,0.0,8,0.00,,,0.00,300,WeatherHawk,2013-03-03 14:45:00,
2013-03-03 08:50:00,50.4,-4.1,30.38,ESE,113,11.0,0.0,10,0.00,,,0.00,317,WeatherHawk,2013-03-03 14:50:00,
2013-03-03 08:55:00,49.7,-4.7,30.39,SSE,147,12.0,-999.0,10,0.00,,,0.00,331,WeatherHawk,2013-03-03 14:55:00,
2013-03-03 09:00:00,50.7,-1.9,30.39,ESE,119,10.0,0.0,11,0.00,,,0.00,350,WeatherHawk,2013-03-03 15:00:00,
2013-03-03 09:05:00,51.6,-10.4,30.39,South,184,9.0,0.0,7,0.00,,,0.00,364,WeatherHawk,2013-03-03 15:05:00,
2013-03-03 09:10:00,53.4,0.3,30.38,East,80,7.0,0.0,11,0.00,,,0.00,383,WeatherHawk,2013-03-03 15:10:00,
2013-03-03 09:15:00,52.3,-10.0,30.38,SE,142,5.0,0.0,7,0.00,,,0.00,399,WeatherHawk,2013-03-03 15:15:00,
2013-03-03 09:20:00,52.9,-6.8,30.38,SSE,155,11.0,0.0,8,0.00,,,0.00,413,WeatherHawk,2013-03-03 15:20:00,
2013-03-03 09:25:00,52.8,-9.6,30.38,SSE,156,11.0,0.0,7,0.00,,,0.00,429,WeatherHawk,2013-03-03 15:25:00,
2013-03-03 09:30:00,54.0,-5.9,30.38,SSE,151,9.0,0.0,8,0.00,,,0.00,445,WeatherHawk,2013-03-03 15:30:00,
2013-03-03 09:35:00,53.7,-6.2,30.37,SSE,158,6.0,-999.0,8,0.00,,,0.00,460,WeatherHawk,2013-03-03 15:35:00,
2013-03-03 09:40:00,53.8,-6.1,30.36,SW,216,9.0,0.0,8,0.00,,,0.00,474,WeatherHawk,2013-03-03 15:40:00,
2013-03-03 09:45:00,54.7,-5.5,30.37,South,170,14.0,0.0,8,0.00,,,0.00,488,WeatherHawk,2013-03-03 15:45:00,
2013-03-03 09:50:00,54.1,-5.9,30.36,SE,134,6.0,0.0,8,0.00,,,0.00,504,WeatherHawk,2013-03-03 15:50:00,
2013-03-03 09:55:00,53.9,-6.1,30.36,South,169,11.0,-999.0,8,0.00,,,0.00,516,WeatherHawk,2013-03-03 15:55:00,
2013-03-03 10:00:00,53.9,-3.6,30.36,WSW,237,9.0,0.0,9,0.00,,,0.00,531,WeatherHawk,2013-03-03 16:00:00,
2013-03-03 10:05:00,55.0,-5.2,30.35,SSE,163,9.0,0.0,8,0.00,,,0.00,543,WeatherHawk,2013-03-03 16:05:00,
2013-03-03 10:10:00,54.9,-5.3,30.35,South,187,12.0,0.0,8,0.00,,,0.00,559,WeatherHawk,2013-03-03 16:10:00,
2013-03-03 10:15:00,54.7,-5.5,30.34,SSE,163,13.0,0.0,8,0.00,,,0.00,571,WeatherHawk,2013-03-03 16:15:00,
2013-03-03 10:20:00,56.0,-4.5,30.34,South,188,10.0,0.0,8,0.00,,,0.00,580,WeatherHawk,2013-03-03 16:20:00,
2013-03-03 10:25:00,55.4,-2.4,30.34,ESE,105,17.0,0.0,9,0.00,,,0.00,593,WeatherHawk,2013-03-03 16:25:00,
2013-03-03 10:30:00,56.5,-1.6,30.34,SSW,194,13.0,-999.0,9,0.00,,,0.00,608,WeatherHawk,2013-03-03 16:30:00,
2013-03-03 10:35:00,57.4,-0.9,30.33,South,186,10.0,0.0,9,0.00,,,0.00,619,WeatherHawk,2013-03-03 16:35:00,
2013-03-03 10:40:00,56.6,-1.5,30.32,SE,143,10.0,0.0,9,0.00,,,0.00,627,WeatherHawk,2013-03-03 16:40:00,
2013-03-03 10:45:00,57.0,-1.2,30.32,SE,140,5.0,0.0,9,0.00,,,0.00,641,WeatherHawk,2013-03-03 16:45:00,
2013-03-03 10:50:00,57.5,1.3,30.31,SSE,166,11.0,0.0,10,0.00,,,0.00,651,WeatherHawk,2013-03-03 16:50:00,
2013-03-03 10:55:00,59.8,3.2,30.31,SSE,150,9.0,0.0,10,0.00,,,0.00,663,WeatherHawk,2013-03-03 16:55:00,
2013-03-03 11:00:00,59.7,-4.5,30.31,SSE,163,9.0,0.0,7,0.00,,,0.00,672,WeatherHawk,2013-03-03 17:00:00,
2013-03-03 11:05:00,61.8,-6.1,30.30,South,170,6.0,-999.0,6,0.00,,,0.00,682,WeatherHawk,2013-03-03 17:05:00,
2013-03-03 11:10:00,59.7,-7.6,30.29,South,182,6.0,0.0,6,0.00,,,0.00,688,WeatherHawk,2013-03-03 17:10:00,
2013-03-03 11:15:00,59.5,-7.8,30.29,SSE,153,13.0,0.0,6,0.00,,,0.00,700,WeatherHawk,2013-03-03 17:15:00,
2013-03-03 11:20:00,62.1,-2.7,30.29,SE,141,8.0,0.0,7,0.00,,,0.00,710,WeatherHawk,2013-03-03 17:20:00,
2013-03-03 11:25:00,61.2,-3.4,30.28,SE,139,4.0,-999.0,7,0.00,,,0.00,717,WeatherHawk,2013-03-03 17:25:00,
2013-03-03 11:30:00,60.7,-3.8,30.29,SE,145,11.0,0.0,7,0.00,,,0.00,725,WeatherHawk,2013-03-03 17:30:00,
2013-03-03 11:35:00,60.4,-4.0,30.28,ESE,117,12.0,0.0,7,0.00,,,0.00,729,WeatherHawk,2013-03-03 17:35:00,
2013-03-03 11:40:00,61.6,-3.0,30.27,South,183,12.0,0.0,7,0.00,,,0.00,735,WeatherHawk,2013-03-03 17:40:00,
2013-03-03 11:45:00,59.9,-4.3,30.26,South,182,12.0,0.0,7,0.00,,,0.00,740,WeatherHawk,2013-03-03 17:45:00,
2013-03-03 11:50:00,60.5,-3.9,30.26,SE,142,11.0,-999.0,7,0.00,,,0.00,746,WeatherHawk,2013-03-03 17:50:00,
2013-03-03 11:55:00,62.2,-2.6,30.26,SE,130,10.0,0.0,7,0.00,,,0.00,752,WeatherHawk,2013-03-03 17:55:00,
2013-03-03 12:00:00,62.1,-2.7,30.26,SSE,147,9.0,-999.0,7,0.00,,,0.00,756,WeatherHawk,2013-03-03 18:00:00,
2013-03-03 12:05:00,63.2,-1.9,30.25,SE,140,12.0,0.0,7,0.00,,,0.00,759,WeatherHawk,2013-03-03 18:05:00,
2013-03-03 12:10:00,61.5,-3.1,30.25,South,174,11.0,0.0,7,0.00,,,0.00,765,WeatherHawk,2013-03-03 18:10:00,
2013-03-03 12:15:00,63.7,-1.5,30.25,South,177,8.0,0.0,7,0.00,,,0.00,766,WeatherHawk,2013-03-03 18:15:00,
2013-03-03 12:20:00,64.5,-0.9,30.24,ESE,114,13.0,0.0,7,0.00,,,0.00,770,WeatherHawk,2013-03-03 18:20:00,
2013-03-03 12:25:00,61.9,-2.8,30.24,SSE,153,13.0,0.0,7,0.00,,,0.00,771,WeatherHawk,2013-03-03 18:25:00,
2013-03-03 12:30:00,64.0,-1.3,30.24,SE,143,12.0,0.0,7,0.00,,,0.00,774,WeatherHawk,2013-03-03 18:30:00,
2013-03-03 12:35:00,62.8,-2.2,30.23,South,189,9.0,-999.0,7,0.00,,,0.00,775,WeatherHawk,2013-03-03 18:35:00,
2013-03-03 12:40:00,62.8,-2.2,30.23,SE,138,13.0,0.0,7,0.00,,,0.00,776,WeatherHawk,2013-03-03 18:40:00,
2013-03-03 12:45:00,63.7,-1.5,30.23,SSE,158,11.0,0.0,7,0.00,,,0.00,777,WeatherHawk,2013-03-03 18:45:00,
2013-03-03 12:50:00,67.0,0.9,30.22,SSE,161,7.0,0.0,7,0.00,,,0.00,777,WeatherHawk,2013-03-03 18:50:00,
2013-03-03 12:55:00,64.9,-0.7,30.22,South,186,10.0,0.0,7,0.00,,,0.00,778,WeatherHawk,2013-03-03 18:55:00,
2013-03-03 13:00:00,66.8,3.6,30.22,SE,146,4.0,-999.0,8,0.00,,,0.00,777,WeatherHawk,2013-03-03 19:00:00,
2013-03-03 13:05:00,67.2,3.9,30.22,SSW,197,12.0,0.0,8,0.00,,,0.00,780,WeatherHawk,2013-03-03 19:05:00,
2013-03-03 13:10:00,66.3,3.2,30.21,SE,140,13.0,0.0,8,0.00,,,0.00,785,WeatherHawk,2013-03-03 19:10:00,
2013-03-03 13:15:00,65.3,2.5,30.22,SSE,164,11.0,0.0,8,0.00,,,0.00,752,WeatherHawk,2013-03-03 19:15:00,
2013-03-03 13:20:00,66.6,3.5,30.21,South,172,4.0,0.0,8,0.00,,,0.00,710,WeatherHawk,2013-03-03 19:20:00,
2013-03-03 13:25:00,65.6,2.7,30.22,SE,141,14.0,0.0,8,0.00,,,0.00,738,WeatherHawk,2013-03-03 19:25:00,
2013-03-03 13:30:00,67.7,4.3,30.20,South,186,10.0,0.0,8,0.00,,,0.00,772,WeatherHawk,2013-03-03 19:30:00,
2013-03-03 13:35:00,69.3,5.5,30.20,West,260,8.0,-999.0,8,0.00,,,0.00,685,WeatherHawk,2013-03-03 19:35:00,
2013-03-03 13:40:00,68.0,4.6,30.19,SE,136,6.0,0.0,8,0.00,,,0.00,535,WeatherHawk,2013-03-03 19:40:00,
2013-03-03 13:45:00,68.3,4.7,30.19,SW,215,8.0,-999.0,8,0.00,,,0.00,657,WeatherHawk,2013-03-03 19:45:00,
2013-03-03 13:50:00,67.9,4.4,30.18,SSE,158,10.0,0.0,8,0.00,,,0.00,412,WeatherHawk,2013-03-03 19:50:00,
2013-03-03 13:55:00,67.2,1.0,30.18,SSE,166,11.0,-999.0,7,0.00,,,0.00,637,WeatherHawk,2013-03-03 19:55:00,
2013-03-03 14:00:00,68.3,4.7,30.18,ESE,121,9.0,0.0,8,0.00,,,0.00,384,WeatherHawk,2013-03-03 20:00:00,
2013-03-03 14:05:00,68.1,4.6,30.18,South,176,11.0,0.0,8,0.00,,,0.00,879,WeatherHawk,2013-03-03 20:05:00,
2013-03-03 14:10:00,68.1,4.6,30.17,SW,230,6.0,0.0,8,0.00,,,0.00,757,WeatherHawk,2013-03-03 20:10:00,
2013-03-03 14:15:00,68.1,4.6,30.17,SSE,157,11.0,0.0,8,0.00,,,0.00,769,WeatherHawk,2013-03-03 20:15:00,
2013-03-03 14:20:00,69.4,5.5,30.17,South,181,11.0,0.0,8,0.00,,,0.00,754,WeatherHawk,2013-03-03 20:20:00,
2013-03-03 14:25:00,68.6,5.0,30.16,South,169,11.0,0.0,8,0.00,,,0.00,764,WeatherHawk,2013-03-03 20:25:00,
2013-03-03 14:30:00,69.9,5.9,30.16,South,189,9.0,0.0,8,0.00,,,0.00,716,WeatherHawk,2013-03-03 20:30:00,
2013-03-03 14:35:00,69.4,5.6,30.15,South,186,10.0,0.0,8,0.00,,,0.00,627,WeatherHawk,2013-03-03 20:35:00,
2013-03-03 14:40:00,68.7,5.1,30.14,ESE,119,16.0,0.0,8,0.00,,,0.00,619,WeatherHawk,2013-03-03 20:40:00,
2013-03-03 14:45:00,70.0,3.1,30.14,SE,141,9.0,0.0,7,0.00,,,0.00,817,WeatherHawk,2013-03-03 20:45:00,
2013-03-03 14:50:00,70.4,6.3,30.13,SE,132,9.0,0.0,8,0.00,,,0.00,549,WeatherHawk,2013-03-03 20:50:00,
2013-03-03 14:55:00,69.5,2.7,30.14,SE,142,11.0,0.0,7,0.00,,,0.00,559,WeatherHawk,2013-03-03 20:55:00,
2013-03-03 15:00:00,69.7,2.9,30.14,SSE,159,12.0,0.0,7,0.00,,,0.00,671,WeatherHawk,2013-03-03 21:00:00,
2013-03-03 15:06:00,69.2,2.5,30.13,SSE,162,15.0,0.0,7,0.00,,,0.00,713,WeatherHawk,2013-03-03 21:06:00,
2013-03-03 15:11:00,70.6,3.5,30.13,South,181,10.0,0.0,7,0.00,,,0.00,627,WeatherHawk,2013-03-03 21:11:00,
2013-03-03 15:16:00,70.1,3.2,30.13,ESE,107,12.0,0.0,7,0.00,,,0.00,630,WeatherHawk,2013-03-03 21:16:00,
2013-03-03 15:21:00,70.3,3.4,30.12,SSE,153,17.0,0.0,7,0.00,,,0.00,555,WeatherHawk,2013-03-03 21:21:00,
2013-03-03 15:26:00,70.4,3.4,30.13,SSW,212,11.0,0.0,7,0.00,,,0.00,578,WeatherHawk,2013-03-03 21:26:00,
2013-03-03 15:31:00,70.0,3.1,30.12,SSE,165,18.0,0.0,7,0.00,,,0.00,568,WeatherHawk,2013-03-03 21:31:00,
2013-03-03 15:37:00,70.5,6.4,30.11,South,174,15.0,0.0,8,0.00,,,0.00,541,WeatherHawk,2013-03-03 21:37:00,
2013-03-03 15:42:00,69.4,2.7,30.12,SE,125,19.0,0.0,7,0.00,,,0.00,524,WeatherHawk,2013-03-03 21:42:00,
2013-03-03 15:47:00,71.3,4.1,30.10,SE,143,14.0,0.0,7,0.00,,,0.00,510,WeatherHawk,2013-03-03 21:47:00,
2013-03-03 15:52:00,71.0,3.9,30.10,SE,135,16.0,0.0,7,0.00,,,0.00,493,WeatherHawk,2013-03-03 21:52:00,
2013-03-03 15:57:00,70.6,3.5,30.10,East,100,14.0,0.0,7,0.00,,,0.00,482,WeatherHawk,2013-03-03 21:57:00,
2013-03-03 16:02:00,70.6,3.5,30.11,SE,143,14.0,0.0,7,0.00,,,0.00,462,WeatherHawk,2013-03-03 22:02:00,
2013-03-03 16:07:00,70.8,0.4,30.11,SE,130,12.0,0.0,6,0.00,,,0.00,422,WeatherHawk,2013-03-03 22:07:00,
2013-03-03 16:12:00,70.6,0.3,30.10,SSE,148,12.0,0.0,6,0.00,,,0.00,363,WeatherHawk,2013-03-03 22:12:00,
2013-03-03 16:17:00,70.8,0.4,30.09,SSW,200,14.0,0.0,6,0.00,,,0.00,421,WeatherHawk,2013-03-03 22:17:00,
2013-03-03 16:23:00,70.2,-0.1,30.09,SSE,162,12.0,0.0,6,0.00,,,0.00,404,WeatherHawk,2013-03-03 22:23:00,
2013-03-03 16:28:00,69.8,-0.4,30.09,SSE,167,18.0,0.0,6,0.00,,,0.00,365,WeatherHawk,2013-03-03 22:28:00,
2013-03-03 16:33:00,69.8,-0.3,30.09,SE,138,21.0,0.0,6,0.00,,,0.00,346,WeatherHawk,2013-03-03 22:33:00,
2013-03-03 16:38:00,70.5,-3.7,30.08,SSE,164,9.0,0.0,5,0.00,,,0.00,375,WeatherHawk,2013-03-03 22:38:00,
2013-03-03 16:43:00,70.0,-4.0,30.09,SSE,154,17.0,0.0,5,0.00,,,0.00,365,WeatherHawk,2013-03-03 22:43:00,
2013-03-03 16:48:00,70.5,-3.7,30.09,South,189,7.0,0.0,5,0.00,,,0.00,363,WeatherHawk,2013-03-03 22:48:00,
2013-03-03 16:53:00,69.8,-4.1,30.09,South,169,17.0,0.0,5,0.00,,,0.00,348,WeatherHawk,2013-03-03 22:53:00,
2013-03-03 16:58:00,70.5,-3.7,30.09,South,181,13.0,0.0,5,0.00,,,0.00,217,WeatherHawk,2013-03-03 22:58:00,
2013-03-03 17:03:00,69.7,-4.2,30.09,South,171,13.0,0.0,5,0.00,,,0.00,320,WeatherHawk,2013-03-03 23:03:00,
2013-03-03 17:09:00,70.2,-3.9,30.08,SSE,148,19.0,0.0,5,0.00,,,0.00,301,WeatherHawk,2013-03-03 23:09:00,
2013-03-03 17:14:00,70.2,-3.9,30.08,SE,140,13.0,0.0,5,0.00,,,0.00,168,WeatherHawk,2013-03-03 23:14:00,
2013-03-03 17:19:00,69.9,-0.2,30.07,SSE,158,18.0,0.0,6,0.00,,,0.00,135,WeatherHawk,2013-03-03 23:19:00,
2013-03-03 17:24:00,69.9,6.0,30.08,SSE,168,9.0,0.0,8,0.00,,,0.00,67,WeatherHawk,2013-03-03 23:24:00,
2013-03-03 17:30:00,69.7,5.8,30.07,SSE,168,14.0,-999.0,8,0.00,,,0.00,57,WeatherHawk,2013-03-03 23:30:00,
2013-03-03 17:35:00,69.7,2.9,30.08,ESE,113,10.0,0.0,7,0.00,,,0.00,105,WeatherHawk,2013-03-03 23:35:00,
2013-03-03 17:40:00,69.8,3.0,30.07,SSE,164,9.0,0.0,7,0.00,,,0.00,167,WeatherHawk,2013-03-03 23:40:00,
2013-03-03 17:45:00,69.7,2.9,30.08,SE,125,12.0,0.0,7,0.00,,,0.00,185,WeatherHawk,2013-03-03 23:45:00,
2013-03-03 17:50:00,69.5,2.8,30.07,SE,146,15.0,-999.0,7,0.00,,,0.00,135,WeatherHawk,2013-03-03 23:50:00,
2013-03-03 17:55:00,69.7,2.9,30.07,South,175,10.0,-999.0,7,0.00,,,0.00,85,WeatherHawk,2013-03-03 23:55:00,
2013-03-03 18:00:00,69.4,2.6,30.07,SSE,162,14.0,0.0,7,0.00,,,0.00,50,WeatherHawk,2013-03-04 00:00:00,
2013-03-03 18:05:00,69.1,-0.8,30.07,SSW,199,10.0,0.0,6,0.00,,,0.00,31,WeatherHawk,2013-03-04 00:05:00,
2013-03-03 18:10:00,68.9,7.8,30.07,SSE,162,9.0,0.0,9,0.00,,,0.00,18,WeatherHawk,2013-03-04 00:10:00,
2013-03-03 18:15:00,68.7,7.6,30.07,SSE,154,8.0,0.0,9,0.00,,,0.00,12,WeatherHawk,2013-03-04 00:15:00,
2013-03-03 18:20:00,68.2,4.6,30.07,ESE,114,10.0,0.0,8,0.00,,,0.00,7,WeatherHawk,2013-03-04 00:20:00,
2013-03-03 18:25:00,68.0,-1.6,30.07,SE,143,12.0,-999.0,6,0.00,,,0.00,4,WeatherHawk,2013-03-04 00:25:00,
2013-03-03 18:30:00,67.9,9.4,30.07,SSW,199,13.0,0.0,10,0.00,,,0.00,2,WeatherHawk,2013-03-04 00:30:00,
2013-03-03 18:35:00,67.6,6.8,30.07,SSE,156,15.0,0.0,9,0.00,,,0.00,2,WeatherHawk,2013-03-04 00:35:00,
2013-03-03 18:40:00,67.3,-2.1,30.06,SE,125,11.0,-999.0,6,0.00,,,0.00,0,WeatherHawk,2013-03-04 00:40:00,
2013-03-03 18:45:00,67.4,4.1,30.06,ESE,116,11.0,0.0,8,0.00,,,0.00,0,WeatherHawk,2013-03-04 00:45:00,
2013-03-03 18:50:00,67.2,1.0,30.06,SE,136,14.0,0.0,7,0.00,,,0.00,0,WeatherHawk,2013-03-04 00:50:00,
2013-03-03 18:55:00,67.0,0.9,30.05,SSE,160,13.0,0.0,7,0.00,,,0.00,0,WeatherHawk,2013-03-04 00:55:00,
2013-03-03 19:00:00,67.0,6.4,30.05,SE,140,16.0,-999.0,9,0.00,,,0.00,0,WeatherHawk,2013-03-04 01:00:00,
2013-03-03 19:05:00,66.9,6.2,30.05,SSE,164,19.0,0.0,9,0.00,,,0.00,1,WeatherHawk,2013-03-04 01:05:00,
2013-03-03 19:10:00,66.6,3.5,30.05,SE,135,14.0,0.0,8,0.00,,,0.00,1,WeatherHawk,2013-03-04 01:10:00,
2013-03-03 19:15:00,66.6,3.5,30.05,SE,140,18.0,-999.0,8,0.00,,,0.00,1,WeatherHawk,2013-03-04 01:15:00,
2013-03-03 19:20:00,66.1,0.2,30.05,SSE,168,15.0,0.0,7,0.00,,,0.00,0,WeatherHawk,2013-03-04 01:20:00,
2013-03-03 19:25:00,65.7,2.8,30.04,SSE,148,12.0,0.0,8,0.00,,,0.00,1,WeatherHawk,2013-03-04 01:25:00,
2013-03-03 19:30:00,65.9,0.1,30.04,SSE,153,12.0,0.0,7,0.00,,,0.00,0,WeatherHawk,2013-03-04 01:30:00,
2013-03-03 19:35:00,65.7,5.3,30.05,South,172,10.0,0.0,9,0.00,,,0.00,1,WeatherHawk,2013-03-04 01:35:00,
2013-03-03 19:40:00,65.7,5.4,30.04,SE,128,18.0,0.0,9,0.00,,,0.00,1,WeatherHawk,2013-03-04 01:40:00,
2013-03-03 19:45:00,65.4,2.6,30.05,SSE,166,10.0,0.0,8,0.00,,,0.00,0,WeatherHawk,2013-03-04 01:45:00,
2013-03-03 19:50:00,65.5,7.5,30.04,South,173,12.0,0.0,10,0.00,,,0.00,0,WeatherHawk,2013-03-04 01:50:00,
2013-03-03 19:55:00,65.5,2.6,30.05,SE,145,18.0,0.0,8,0.00,,,0.00,0,WeatherHawk,2013-03-04 01:55:00,
2013-03-03 20:00:00,65.3,7.3,30.04,SE,141,12.0,0.0,10,0.00,,,0.00,0,WeatherHawk,2013-03-04 02:00:00,
2013-03-03 20:05:00,65.4,7.4,30.05,SSE,155,12.0,0.0,10,0.00,,,0.00,0,WeatherHawk,2013-03-04 02:05:00,
2013-03-03 20:10:00,65.4,5.1,30.05,SSE,157,18.0,-999.0,9,0.00,,,0.00,0,WeatherHawk,2013-03-04 02:10:00,
2013-03-03 20:15:00,65.5,2.7,30.04,SE,130,14.0,0.0,8,0.00,,,0.00,0,WeatherHawk,2013-03-04 02:15:00,
2013-03-03 20:20:00,65.2,5.0,30.04,SE,134,12.0,0.0,9,0.00,,,0.00,0,WeatherHawk,2013-03-04 02:20:00,
2013-03-03 20:25:00,65.2,9.4,30.04,SSE,149,10.0,-999.0,11,0.00,,,0.00,0,WeatherHawk,2013-03-04 02:25:00,
2013-03-03 20:30:00,64.9,7.0,30.04,South,183,12.0,0.0,10,0.00,,,0.00,0,WeatherHawk,2013-03-04 02:30:00,
2013-03-03 20:35:00,64.9,7.1,30.05,SE,142,10.0,-999.0,10,0.00,,,0.00,0,WeatherHawk,2013-03-04 02:35:00,
2013-03-03 20:40:00,65.0,7.1,30.05,ESE,112,14.0,0.0,10,0.00,,,0.00,0,WeatherHawk,2013-03-04 02:40:00,
2013-03-03 20:45:00,64.8,9.1,30.05,SSE,148,7.0,-999.0,11,0.00,,,0.00,0,WeatherHawk,2013-03-04 02:45:00,
2013-03-03 20:50:00,64.9,9.1,30.05,SE,139,12.0,0.0,11,0.00,,,0.00,0,WeatherHawk,2013-03-04 02:50:00,
2013-03-03 20:55:00,64.8,7.0,30.05,SSE,168,10.0,0.0,10,0.00,,,0.00,0,WeatherHawk,2013-03-04 02:55:00,
2013-03-03 21:00:00,64.9,11.1,30.05,South,169,16.0,-999.0,12,0.00,,,0.00,0,WeatherHawk,2013-03-04 03:00:00,
2013-03-03 21:05:00,64.4,6.7,30.05,SSW,209,12.0,0.0,10,0.00,,,0.00,0,WeatherHawk,2013-03-04 03:05:00,
2013-03-03 21:10:00,64.9,9.2,30.05,SSE,155,10.0,-999.0,11,0.00,,,0.00,1,WeatherHawk,2013-03-04 03:10:00,
2013-03-03 21:15:00,64.8,12.8,30.06,SSE,161,14.0,0.0,13,0.00,,,0.00,1,WeatherHawk,2013-03-04 03:15:00,
2013-03-03 21:20:00,65.0,11.2,30.06,South,178,10.0,-999.0,12,0.00,,,0.00,0,WeatherHawk,2013-03-04 03:20:00,
2013-03-03 21:25:00,64.4,8.7,30.06,ESE,121,13.0,0.0,11,0.00,,,0.00,0,WeatherHawk,2013-03-04 03:25:00,
2013-03-03 21:30:00,64.6,10.8,30.05,SE,144,13.0,0.0,12,0.00,,,0.00,0,WeatherHawk,2013-03-04 03:30:00,
2013-03-03 21:35:00,64.3,10.6,30.05,South,175,9.0,0.0,12,0.00,,,0.00,1,WeatherHawk,2013-03-04 03:35:00,
2013-03-03 21:40:00,64.4,14.2,30.05,SSE,163,13.0,0.0,14,0.00,,,0.00,0,WeatherHawk,2013-03-04 03:40:00,
2013-03-03 21:45:00,64.3,12.4,30.05,South,171,13.0,-999.0,13,0.00,,,0.00,0,WeatherHawk,2013-03-04 03:45:00,
2013-03-03 21:50:00,64.0,12.2,30.04,South,183,12.0,0.0,13,0.00,,,0.00,1,WeatherHawk,2013-03-04 03:50:00,
2013-03-03 21:55:00,64.1,12.3,30.04,SSE,161,12.0,-999.0,13,0.00,,,0.00,0,WeatherHawk,2013-03-04 03:55:00,
2013-03-03 22:00:00,63.9,12.1,30.04,SSE,163,11.0,0.0,13,0.00,,,0.00,1,WeatherHawk,2013-03-04 04:00:00,
2013-03-03 22:05:00,63.8,15.3,30.04,South,182,12.0,0.0,15,0.00,,,0.00,0,WeatherHawk,2013-03-04 04:05:00,
2013-03-03 22:10:00,63.9,12.1,30.05,SSE,154,15.0,0.0,13,0.00,,,0.00,1,WeatherHawk,2013-03-04 04:10:00,
2013-03-03 22:15:00,63.8,13.7,30.05,South,171,23.0,0.0,14,0.00,,,0.00,0,WeatherHawk,2013-03-04 04:15:00,
2013-03-03 22:20:00,63.6,13.6,30.04,SSW,196,13.0,0.0,14,0.00,,,0.00,0,WeatherHawk,2013-03-04 04:20:00,
2013-03-03 22:25:00,63.7,15.2,30.04,SSE,161,15.0,-999.0,15,0.00,,,0.00,0,WeatherHawk,2013-03-04 04:25:00,
2013-03-03 22:30:00,63.6,15.1,30.04,SE,146,14.0,0.0,15,0.00,,,0.00,1,WeatherHawk,2013-03-04 04:30:00,
2013-03-03 22:35:00,63.8,15.2,30.05,SE,130,19.0,0.0,15,0.00,,,0.00,0,WeatherHawk,2013-03-04 04:35:00,
2013-03-03 22:40:00,63.4,15.0,30.04,SSW,204,11.0,0.0,15,0.00,,,0.00,0,WeatherHawk,2013-03-04 04:40:00,
2013-03-03 22:45:00,63.3,14.9,30.05,SE,130,17.0,0.0,15,0.00,,,0.00,1,WeatherHawk,2013-03-04 04:45:00,
2013-03-03 22:50:00,62.9,17.5,30.04,SSE,157,14.0,0.0,17,0.00,,,0.00,0,WeatherHawk,2013-03-04 04:50:00,
2013-03-03 22:55:00,62.7,17.3,30.06,SSE,167,12.0,-999.0,17,0.00,,,0.00,1,WeatherHawk,2013-03-04 04:55:00,
2013-03-03 23:00:00,62.7,17.3,30.05,ESE,115,21.0,-999.0,17,0.00,,,0.00,0,WeatherHawk,2013-03-04 05:00:00,
2013-03-03 23:03:00,62.4,18.4,30.05,SE,144,13.0,0.0,18,0.00,,,0.00,0,WeatherHawk,2013-03-04 05:03:00,
2013-03-03 23:08:00,62.4,19.6,30.04,SSE,165,15.0,0.0,19,0.00,,,0.00,0,WeatherHawk,2013-03-04 05:08:00,
2013-03-03 23:13:00,61.6,19.0,30.05,SW,218,6.0,0.0,19,0.00,,,0.00,1,WeatherHawk,2013-03-04 05:13:00,
2013-03-03 23:18:00,61.8,21.4,30.04,SSW,205,10.0,0.0,21,0.00,,,0.00,0,WeatherHawk,2013-03-04 05:18:00,
2013-03-03 23:23:00,61.6,21.3,30.04,SW,215,8.0,0.0,21,0.00,,,0.00,0,WeatherHawk,2013-03-04 05:23:00,
2013-03-03 23:28:00,61.4,21.2,30.04,SSE,148,10.0,0.0,21,0.00,,,0.00,0,WeatherHawk,2013-03-04 05:28:00,
2013-03-03 23:33:00,61.5,22.3,30.04,SE,128,14.0,0.0,22,0.00,,,0.00,1,WeatherHawk,2013-03-04 05:33:00,
2013-03-03 23:38:00,61.3,22.2,30.04,SE,136,11.0,0.0,22,0.00,,,0.00,0,WeatherHawk,2013-03-04 05:38:00,
2013-03-03 23:44:00,61.3,23.2,30.03,South,183,15.0,0.0,23,0.00,,,0.00,0,WeatherHawk,2013-03-04 05:44:00,
2013-03-03 23:49:00,61.0,23.0,30.03,SE,130,12.0,0.0,23,0.00,,,0.00,0,WeatherHawk,2013-03-04 05:49:00,
2013-03-03 23:54:00,61.0,24.0,30.05,SE,134,10.0,0.0,24,0.00,,,0.00,0,WeatherHawk,2013-03-04 05:54:00,
2013-03-03 23:59:00,60.9,23.9,30.04,SSE,148,12.0,0.0,24,0.00,,,0.00,0,WeatherHawk,2013-03-04 05:59:00,